Time;durP1;ratioP1;P1;durP2;ratioP2;P2;SDS_P1;SDS_P2;PMS_P1;PMS_P2;Temp;Humidity;BMP_temperature;BMP_pressure;BME280_temperature;BME280_humidity;BME280_pressure;Samples;Min_cycle;Max_cycle;Signal;HPM_P1;HPM_P2
2021/10/24 00:01:10;;;;;;;5.40;2.92;;;20.20;46.40;;;24.10;30.80;102585.50;5054186;28;20139;-9
2021/10/24 00:03:37;;;;;;;6.25;3.22;;;20.20;46.50;;;24.10;30.79;102590.84;5054262;28;20053;-9
2021/10/24 00:06:06;;;;;;;5.93;3.03;;;20.20;46.60;;;24.10;30.86;102582.81;5054016;28;20542;-9
2021/10/24 00:08:32;;;;;;;5.85;2.50;;;20.20;46.50;;;24.11;30.71;102589.06;5054207;28;20049;-9
2021/10/24 00:10:57;;;;;;;5.10;3.00;;;20.20;46.50;;;24.10;30.91;102585.50;5054203;28;20060;-9
2021/10/24 00:13:23;;;;;;;5.95;2.90;;;20.20;46.50;;;24.12;30.93;102585.44;5053826;28;20139;-9
2021/10/24 00:15:49;;;;;;;5.20;2.67;;;20.20;46.50;;;24.12;30.85;102582.75;5053872;28;20142;-9
2021/10/24 00:18:15;;;;;;;6.78;3.22;;;20.20;46.60;;;24.10;30.59;102584.63;5053668;28;20049;-9
2021/10/24 00:20:41;;;;;;;6.90;3.08;;;20.10;46.60;;;24.12;30.98;102588.94;5053642;28;20052;-9
2021/10/24 00:23:06;;;;;;;8.63;3.03;;;20.20;46.60;;;24.13;30.80;102582.69;5053860;28;20106;-9
2021/10/24 00:25:32;;;;;;;4.97;2.53;;;20.20;46.60;;;24.13;30.97;102590.69;5036224;28;20045;-9
2021/10/24 00:27:58;;;;;;;6.43;2.78;;;20.20;46.60;;;24.10;30.78;102587.31;5053751;28;20048;-9
2021/10/24 00:30:24;;;;;;;4.40;2.50;;;20.10;46.60;;;24.12;30.98;102588.94;5034259;28;20053;-9
2021/10/24 00:32:50;;;;;;;5.13;3.03;;;20.20;46.60;;;24.10;30.78;102576.63;5054273;28;20120;-9
2021/10/24 00:35:16;;;;;;;3.85;2.90;;;20.20;46.60;;;24.11;30.83;102578.38;5036377;28;20045;-9
2021/10/24 00:37:41;;;;;;;5.35;2.58;;;20.10;46.60;;;24.11;30.81;102573.88;5053980;28;20056;-9
2021/10/24 00:40:08;;;;;;;6.38;2.78;;;20.20;46.70;;;24.09;30.95;102574.88;5053587;28;20076;-9
2021/10/24 00:42:34;;;;;;;6.13;2.65;;;20.20;46.50;;;24.12;31.04;102574.72;5053554;28;20132;-9
2021/10/24 00:45:00;;;;;;;6.55;2.65;;;20.20;46.60;;;24.13;30.85;102581.81;5053885;28;20071;-8
2021/10/24 00:47:26;;;;;;;6.70;3.33;;;20.10;46.60;;;24.13;30.86;102576.47;5034198;28;20367;-9
2021/10/24 00:49:53;;;;;;;8.25;2.60;;;20.20;46.60;;;24.10;31.00;102572.13;5048462;28;20046;-9
2021/10/24 00:52:19;;;;;;;4.80;2.92;;;20.20;46.60;;;24.12;30.87;102572.91;5053431;28;20041;-9
2021/10/24 00:54:46;;;;;;;4.32;2.83;;;20.20;47.00;;;24.12;30.89;102580.94;5035484;28;20512;-9
2021/10/24 00:57:12;;;;;;;4.38;2.83;;;20.20;46.50;;;24.14;30.84;102571.06;5034624;28;20052;-8
2021/10/24 00:59:39;;;;;;;6.18;2.60;;;20.20;46.40;;;24.11;30.98;102568.53;5033325;28;20049;-9
2021/10/24 01:02:05;;;;;;;4.10;2.53;;;20.20;46.40;;;24.12;30.91;102566.72;5053271;28;20053;-9
2021/10/24 01:04:31;;;;;;;6.90;2.47;;;20.20;46.40;;;24.13;30.85;102577.34;5035848;28;20045;-9
2021/10/24 01:07:02;;;;;;;5.13;2.47;;;20.20;46.50;;;24.10;30.76;102560.59;5053471;28;20430;-9
2021/10/24 01:09:31;;;;;;;7.90;2.50;;;20.20;46.60;;;24.10;30.98;102560.59;5053210;28;20045;-9
2021/10/24 01:11:57;;;;;;;4.93;2.30;;;20.20;46.50;;;24.13;31.00;102561.31;5052335;28;20041;-9
2021/10/24 01:14:22;;;;;;;4.72;2.63;;;20.20;46.40;;;24.10;30.94;102556.09;5053271;28;20094;-9
2021/10/24 01:16:52;;;;;;;4.88;2.60;;;20.20;46.40;;;24.11;30.82;102562.34;5034343;28;20053;-8
2021/10/24 01:19:21;;;;;;;4.00;2.33;;;20.20;46.40;;;24.11;30.83;102559.66;5049706;28;20046;-9
2021/10/24 01:21:47;;;;;;;5.38;2.53;;;20.20;46.50;;;24.08;30.73;102555.31;5035477;28;20080;-9
2021/10/24 01:24:13;;;;;;;2.97;2.40;;;20.20;46.60;;;24.13;30.97;102573.81;5035080;28;20083;-9
2021/10/24 01:26:41;;;;;;;3.40;2.05;;;20.20;46.60;;;24.08;31.01;102557.97;5051602;28;20083;-8
2021/10/24 01:29:09;;;;;;;3.65;2.10;;;20.20;46.50;;;24.12;30.72;102564.91;5050606;28;20049;-9
2021/10/24 01:31:36;;;;;;;4.40;2.22;;;20.20;46.40;;;24.11;30.83;102559.66;5051437;28;20073;-8
2021/10/24 01:34:04;;;;;;;4.32;2.80;;;20.20;46.60;;;24.10;30.88;102553.44;5051511;28;20072;-9
2021/10/24 01:36:31;;;;;;;3.28;2.20;;;20.20;46.60;;;24.12;30.99;102558.69;5032098;28;20050;-9
2021/10/24 01:38:57;;;;;;;3.38;2.20;;;20.20;46.60;;;24.13;30.93;102561.31;5050843;28;20139;-9
2021/10/24 01:41:24;;;;;;;3.75;2.20;;;20.20;46.50;;;24.11;30.72;102551.66;5050267;28;20564;-8
2021/10/24 01:43:52;;;;;;;4.63;2.40;;;20.20;46.50;;;24.07;31.13;102545.56;5051383;28;20041;-9
2021/10/24 01:46:19;;;;;;;3.40;2.15;;;20.20;46.60;;;24.11;30.79;102554.31;5051223;28;20060;-9
2021/10/24 01:48:46;;;;;;;4.72;2.05;;;20.10;46.60;;;24.10;30.76;102556.09;5051275;28;20140;-8
2021/10/24 01:51:14;;;;;;;3.75;2.30;;;20.20;46.40;;;24.08;30.84;102549.97;5052564;28;20061;-9
2021/10/24 01:53:45;;;;;;;4.18;2.20;;;20.20;46.30;;;24.10;30.73;102553.44;5034323;28;20037;-9
2021/10/24 01:56:12;;;;;;;4.13;2.50;;;20.20;46.50;;;24.13;30.91;102555.09;5034829;28;20118;-9
2021/10/24 01:58:41;;;;;;;4.55;2.42;;;20.20;46.40;;;24.10;30.98;102553.44;5034552;28;20049;-9
2021/10/24 02:01:09;;;;;;;3.50;2.40;;;20.20;46.50;;;24.08;30.90;102546.44;5052377;28;20045;-9
2021/10/24 02:03:53;;;;;;;3.65;2.28;;;20.20;46.50;;;24.09;30.98;102545.47;5052816;28;20083;-9
2021/10/24 02:06:42;;;;;;;3.05;2.33;;;20.10;46.60;;;24.10;30.73;102549.91;5034907;28;20354;-10
2021/10/24 02:09:08;;;;;;;5.18;2.40;;;20.20;46.50;;;24.08;31.04;102546.44;5033853;28;20044;-9
2021/10/24 02:11:34;;;;;;;4.05;2.10;;;20.20;46.60;;;24.09;30.73;102551.72;5051342;28;20068;-9
2021/10/24 02:13:59;;;;;;;4.75;2.40;;;20.10;46.60;;;24.09;31.04;102550.81;5034300;28;20374;-9
2021/10/24 02:16:27;;;;;;;5.95;2.45;;;20.10;46.60;;;24.04;30.88;102540.38;5033962;28;20049;-9
2021/10/24 02:18:53;;;;;;;3.13;2.28;;;20.10;46.60;;;24.05;31.03;102540.28;5034318;28;20114;-9
2021/10/24 02:21:19;;;;;;;3.90;2.40;;;20.10;46.60;;;24.04;31.04;102546.59;5051974;28;20140;-8
2021/10/24 02:23:45;;;;;;;3.53;2.55;;;20.10;46.60;;;24.07;30.94;102542.88;5034119;28;20409;-9
2021/10/24 02:26:13;;;;;;;3.33;2.20;;;20.10;46.60;;;24.07;30.79;102539.34;5051359;28;20496;-8
2021/10/24 02:28:39;;;;;;;4.05;2.28;;;20.10;46.60;;;24.05;30.90;102542.94;5032996;28;20046;-9
2021/10/24 02:31:06;;;;;;;3.63;2.22;;;20.10;46.60;;;24.04;30.96;102554.59;5032717;28;20528;-8
2021/10/24 02:33:51;;;;;;;2.65;2.05;;;20.10;46.60;;;24.04;31.07;102551.06;5052721;28;20140;-9
2021/10/24 02:36:23;;;;;;;4.55;2.08;;;20.10;46.60;;;24.02;30.76;102547.59;5052118;28;20052;-8
2021/10/24 02:38:56;;;;;;;3.30;1.83;;;20.10;46.60;;;24.03;31.11;102542.16;5033429;28;20046;-8
2021/10/24 02:41:22;;;;;;;4.00;2.30;;;20.10;46.60;;;24.03;30.95;102542.16;5034295;28;20156;-9
2021/10/24 02:43:50;;;;;;;3.17;1.90;;;20.00;46.60;;;24.03;31.16;102543.97;5034137;28;20170;-9
2021/10/24 02:46:16;;;;;;;4.00;1.95;;;20.00;46.70;;;24.02;31.00;102552.94;5051896;28;20071;-9
2021/10/24 02:48:42;;;;;;;3.45;2.20;;;20.00;46.70;;;23.99;30.84;102537.03;5051949;28;20053;-9
2021/10/24 02:51:08;;;;;;;3.00;1.88;;;20.00;46.60;;;23.99;31.04;102532.59;5053643;28;20130;-9
2021/10/24 02:53:35;;;;;;;3.13;2.30;;;20.10;46.60;;;24.01;30.93;102532.50;5035056;28;20053;-9
2021/10/24 02:56:06;;;;;;;3.38;2.30;;;20.10;46.60;;;24.00;31.10;102534.28;5054306;28;20044;-8
2021/10/24 02:58:32;;;;;;;4.00;2.00;;;20.10;46.60;;;24.02;30.82;102543.13;5054142;28;20493;-9
2021/10/24 03:00:58;;;;;;;2.92;2.35;;;20.00;46.60;;;24.00;30.94;102536.13;5036074;28;20045;-9
2021/10/24 03:03:25;;;;;;;2.47;2.10;;;20.10;46.60;;;23.99;31.01;102532.59;5050273;28;20053;-9
2021/10/24 03:05:50;;;;;;;3.28;2.30;;;20.00;46.60;;;24.00;30.96;102536.97;5036874;28;20052;-8
2021/10/24 03:08:16;;;;;;;3.50;1.77;;;20.10;46.70;;;23.99;30.80;102535.25;5036087;28;20049;-8
2021/10/24 03:10:43;;;;;;;2.92;2.15;;;20.00;46.70;;;24.00;30.83;102541.47;5051848;28;20413;-9
2021/10/24 03:13:09;;;;;;;3.30;2.03;;;20.00;46.60;;;23.99;31.10;102540.59;5037259;28;20041;-8
2021/10/24 03:15:35;;;;;;;3.15;2.10;;;20.00;46.60;;;23.99;30.78;102537.03;5036472;28;20048;-8
2021/10/24 03:18:01;;;;;;;3.35;1.98;;;20.00;46.70;;;23.97;31.00;102530.91;5035749;28;20049;-8
2021/10/24 03:20:28;;;;;;;2.08;1.58;;;20.00;46.50;;;23.99;30.99;102540.59;5049660;28;20054;-9
2021/10/24 03:22:53;;;;;;;3.10;2.00;;;20.00;46.60;;;23.97;30.75;102531.81;5054834;28;20516;-8
2021/10/24 03:25:19;;;;;;;2.45;1.85;;;20.00;46.60;;;23.98;31.02;102530.84;5035870;28;20042;-9
2021/10/24 03:27:45;;;;;;;2.83;2.30;;;20.00;46.50;;;23.96;31.04;102532.72;5053497;28;20045;-9
2021/10/24 03:30:14;;;;;;;2.83;1.80;;;20.00;46.60;;;23.99;31.04;102534.38;5037224;28;20459;-9
2021/10/24 03:32:40;;;;;;;3.20;2.10;;;20.00;46.60;;;23.96;30.97;102529.19;5036443;28;20055;-9
2021/10/24 03:35:06;;;;;;;3.83;2.10;;;20.00;46.70;;;23.95;31.12;102524.78;5054710;28;20051;-8
2021/10/24 03:37:32;;;;;;;2.78;1.98;;;20.00;46.70;;;23.94;31.15;102523.94;5053655;28;20049;-9
2021/10/24 03:39:57;;;;;;;2.83;2.35;;;20.00;46.60;;;23.95;30.87;102522.97;5036810;28;20049;-9
2021/10/24 03:42:23;;;;;;;3.88;2.00;;;20.00;46.60;;;23.95;30.84;102530.13;5053241;28;20053;-9
2021/10/24 03:44:49;;;;;;;2.85;2.17;;;20.10;46.60;;;23.96;30.90;102531.88;5036828;28;20049;-9
2021/10/24 03:47:17;;;;;;;5.95;2.42;;;20.00;46.60;;;23.95;31.09;102527.47;5036601;28;20041;-9
2021/10/24 03:49:43;;;;;;;3.05;2.00;;;20.00;46.60;;;23.94;30.96;102531.06;5053372;28;20071;-8
2021/10/24 03:52:09;;;;;;;2.30;1.65;;;20.00;46.60;;;23.95;31.07;102530.13;5035697;28;20049;-8
2021/10/24 03:54:35;;;;;;;2.75;1.95;;;20.10;46.60;;;23.98;30.97;102535.31;5054592;28;20056;-9
2021/10/24 03:57:00;;;;;;;2.58;1.75;;;20.10;46.60;;;23.97;31.11;102539.81;5054435;28;20045;-9
2021/10/24 03:59:26;;;;;;;2.95;1.90;;;20.00;46.50;;;23.98;31.12;102533.50;5035782;28;20065;-9
2021/10/24 04:01:52;;;;;;;4.53;1.98;;;20.00;46.50;;;23.96;31.12;102530.06;5035834;28;20550;-9
2021/10/24 04:04:18;;;;;;;3.15;2.60;;;20.00;46.60;;;23.97;31.14;102539.81;5054851;28;20044;-9
2021/10/24 04:06:44;;;;;;;2.92;1.80;;;20.00;46.60;;;23.98;31.10;102530.00;5053400;28;20466;-8
2021/10/24 04:09:10;;;;;;;2.47;1.90;;;20.00;46.50;;;23.99;30.76;102537.03;5035442;28;20056;-9
2021/10/24 04:11:37;;;;;;;2.97;1.80;;;20.10;46.60;;;23.98;30.79;102535.31;5052743;28;20507;-9
2021/10/24 04:14:04;;;;;;;4.32;1.80;;;20.10;46.50;;;23.98;30.94;102533.50;5036127;28;20078;-9
2021/10/24 04:16:30;;;;;;;3.35;1.90;;;20.00;46.50;;;23.95;31.04;102533.66;5052729;28;20045;-9
2021/10/24 04:19:22;;;;;;;2.17;1.90;;;20.00;46.50;;;23.96;30.96;102530.06;5030023;28;20045;-9
2021/10/24 04:21:49;;;;;;;2.05;1.63;;;20.10;46.60;;;23.96;30.90;102531.88;5052682;28;20048;-9
2021/10/24 04:24:15;;;;;;;4.03;2.30;;;20.00;46.50;;;23.95;31.07;102525.63;5036133;28;20056;-8
2021/10/24 04:26:41;;;;;;;3.78;2.03;;;20.10;46.40;;;23.97;30.80;102526.47;5036484;28;20363;-9
2021/10/24 04:29:09;;;;;;;2.00;1.80;;;20.10;46.60;;;23.95;30.88;102522.13;5034538;28;20397;-9
2021/10/24 04:31:34;;;;;;;2.30;1.85;;;20.00;46.50;;;23.96;30.86;102524.72;5034530;28;20099;-9
2021/10/24 04:34:00;;;;;;;1.70;1.60;;;20.00;46.50;;;23.96;31.00;102522.03;5036081;28;20477;-9
2021/10/24 04:36:26;;;;;;;3.75;2.10;;;20.10;46.50;;;23.96;30.93;102523.84;5035776;28;20045;-9
2021/10/24 04:38:52;;;;;;;2.63;1.70;;;20.10;46.30;;;23.94;30.94;102518.59;5034016;28;20049;-9
2021/10/24 04:41:18;;;;;;;2.53;1.83;;;20.10;46.30;;;23.96;30.90;102515.84;5052634;28;20049;-9
2021/10/24 04:43:43;;;;;;;2.40;1.60;;;20.10;46.40;;;23.95;30.79;102514.94;5052561;28;20099;-9
2021/10/24 04:46:14;;;;;;;2.28;1.60;;;20.10;46.40;;;23.98;30.99;102524.63;5052242;28;20106;-9
2021/10/24 04:48:41;;;;;;;3.15;1.85;;;20.00;46.40;;;23.95;30.75;102512.28;5035883;28;20524;-9
2021/10/24 04:51:08;;;;;;;3.20;1.80;;;20.00;46.40;;;23.96;30.90;102519.38;5034393;28;20060;-9
2021/10/24 04:53:37;;;;;;;2.45;1.60;;;20.10;46.30;;;23.96;30.77;102507.81;5035240;28;20474;-9
2021/10/24 04:56:03;;;;;;;2.20;1.70;;;20.10;46.30;;;23.95;30.89;102508.75;5052357;28;20084;-9
2021/10/24 04:58:31;;;;;;;3.65;1.60;;;20.20;46.20;;;23.96;30.72;102505.16;5034313;28;20053;-9
2021/10/24 05:00:57;;;;;;;2.28;1.60;;;20.20;46.10;;;23.96;30.77;102507.81;5033990;28;20049;-9
2021/10/24 05:03:23;;;;;;;2.88;1.73;;;20.10;46.10;;;23.96;30.98;102503.34;5033456;28;20056;-9
2021/10/24 05:05:49;;;;;;;3.08;1.83;;;20.10;46.20;;;23.97;30.89;102513.09;5034548;28;20045;-9
2021/10/24 05:08:15;;;;;;;2.95;1.58;;;20.10;46.20;;;23.96;30.76;102516.69;5033859;28;20056;-9
2021/10/24 05:10:41;;;;;;;2.70;1.80;;;20.10;46.30;;;23.96;30.72;102505.16;5033687;28;20053;-9
2021/10/24 05:13:08;;;;;;;3.35;1.70;;;20.10;46.40;;;23.96;31.00;102510.50;5051099;28;20056;-9
2021/10/24 05:15:34;;;;;;;3.08;1.60;;;20.00;46.40;;;23.91;30.83;102502.69;5035226;28;20502;-9
2021/10/24 05:18:03;;;;;;;2.55;1.65;;;20.00;46.40;;;23.95;30.76;102514.09;5033819;28;20053;-9
2021/10/24 05:20:29;;;;;;;3.05;2.00;;;20.00;46.30;;;23.95;30.81;102504.25;5035660;28;20048;-9
2021/10/24 05:22:56;;;;;;;1.92;1.60;;;20.10;46.30;;;23.93;30.76;102503.47;5034884;28;20049;-8
2021/10/24 05:25:21;;;;;;;2.30;1.60;;;20.00;46.20;;;23.93;30.96;102506.16;5051921;28;20443;-9
2021/10/24 05:27:48;;;;;;;2.03;1.75;;;20.10;46.40;;;23.95;30.87;102509.63;5035296;28;20048;-9
2021/10/24 05:30:14;;;;;;;2.53;1.77;;;20.10;46.30;;;23.96;30.70;102511.34;5052986;28;20051;-9
2021/10/24 05:32:40;;;;;;;3.53;1.50;;;20.10;46.30;;;23.94;30.84;102502.56;5051185;28;20063;-9
2021/10/24 05:35:06;;;;;;;2.50;1.77;;;20.10;46.10;;;23.95;30.81;102501.59;5034808;28;20041;-9
2021/10/24 05:37:32;;;;;;;3.75;1.65;;;20.20;46.10;;;23.98;30.84;102503.25;5050457;28;20123;-9
2021/10/24 05:39:58;;;;;;;3.53;2.00;;;20.10;46.10;;;24.00;30.85;102498.72;5034629;28;20053;-9
2021/10/24 05:42:39;;;;;;;2.00;1.65;;;20.20;46.00;;;23.99;30.89;102507.66;5035398;28;20044;-9
2021/10/24 05:45:06;;;;;;;2.00;1.40;;;20.20;45.90;;;23.98;30.69;102505.94;5051381;28;20049;-9
2021/10/24 05:47:35;;;;;;;2.00;1.50;;;20.20;46.00;;;23.97;30.75;102496.19;5048637;28;20046;-9
2021/10/24 05:50:05;;;;;;;1.98;1.52;;;20.20;46.00;;;23.97;30.60;102489.06;5032406;28;20049;-9
2021/10/24 05:52:31;;;;;;;2.28;1.45;;;20.20;46.10;;;23.96;30.71;102495.31;5033132;28;20370;-9
2021/10/24 05:54:57;;;;;;;2.53;1.92;;;20.10;46.10;;;23.99;30.80;102497.84;5034744;28;20052;-9
2021/10/24 05:57:23;;;;;;;2.30;1.60;;;20.10;46.00;;;23.99;30.58;102497.84;5051304;28;20144;-10
2021/10/24 06:00:08;;;;;;;2.53;1.80;;;20.10;46.00;;;23.98;30.57;102497.94;5052437;28;20060;-9
2021/10/24 06:02:44;;;;;;;2.95;1.90;;;20.20;46.00;;;23.96;30.63;102483.78;5052564;28;20059;-9
2021/10/24 06:05:36;;;;;;;2.28;1.90;;;20.20;46.50;;;23.98;30.64;102490.75;5052585;28;20045;-9
2021/10/24 06:08:03;;;;;;;1.60;1.50;;;20.20;45.90;;;23.99;30.64;102489.84;5050830;28;20385;-9
2021/10/24 06:10:36;;;;;;;2.47;1.65;;;20.20;46.40;;;23.97;30.76;102485.50;5033992;28;20045;-9
2021/10/24 06:13:02;;;;;;;3.00;1.67;;;20.20;46.00;;;23.99;30.64;102496.97;5052715;28;20048;-9
2021/10/24 06:15:29;;;;;;;3.40;1.65;;;20.20;45.90;;;24.00;30.71;102488.03;5052279;28;20697;-9
2021/10/24 06:17:56;;;;;;;2.75;1.80;;;20.20;46.00;;;23.96;30.68;102489.97;5033119;28;20046;-9
2021/10/24 06:20:23;;;;;;;2.70;1.65;;;20.20;45.90;;;23.97;30.80;102485.50;5050857;28;20052;-9
2021/10/24 06:22:51;;;;;;;2.35;1.70;;;20.20;45.90;;;24.02;30.73;102496.81;5049078;28;20504;-9
2021/10/24 06:25:18;;;;;;;3.42;1.50;;;20.20;45.90;;;24.03;30.56;102488.72;5054181;28;20443;-9
2021/10/24 06:27:47;;;;;;;2.42;1.70;;;20.20;45.90;;;24.04;30.62;102489.63;5054093;28;20076;-10
2021/10/24 06:30:17;;;;;;;1.80;1.50;;;20.20;45.90;;;24.01;30.78;102487.09;5055669;28;20409;-9
2021/10/24 06:33:01;;;;;;;1.55;1.17;;;20.20;45.90;;;24.04;30.58;102487.81;5055680;28;20060;-8
2021/10/24 06:35:34;;;;;;;1.35;1.25;;;20.20;45.90;;;24.05;30.82;102492.19;5055981;28;20048;-9
2021/10/24 06:38:35;;;;;;;1.40;1.30;;;20.20;45.70;;;24.10;30.51;102491.97;5054144;28;20052;-8
2021/10/24 06:41:11;;;;;;;1.80;1.40;;;20.30;45.60;;;24.11;30.67;102482.16;5054567;28;20098;-8
2021/10/24 06:43:46;;;;;;;2.67;1.73;;;20.30;45.70;;;24.14;30.66;102492.66;5037520;28;20072;-9
2021/10/24 06:46:47;;;;;;;2.45;1.63;;;20.30;45.70;;;24.13;30.57;102475.78;5055355;28;20417;-9
2021/10/24 06:49:32;;;;;;;1.95;1.55;;;20.30;45.70;;;24.14;30.54;102480.19;5054750;28;20131;-9
2021/10/24 06:52:18;;;;;;;2.47;1.70;;;20.30;45.50;;;24.18;30.37;102483.56;5055220;28;20053;-9
2021/10/24 06:54:56;;;;;;;2.65;1.40;;;20.40;45.30;;;24.18;30.57;102481.75;5037745;28;20443;-9
2021/10/24 06:57:47;;;;;;;2.40;1.65;;;20.50;45.10;;;24.20;30.32;102485.22;5055113;28;20072;-9
2021/10/24 07:00:31;;;;;;;2.05;1.30;;;20.50;44.90;;;24.19;30.29;102483.50;5055201;28;20056;-9
2021/10/24 07:03:15;;;;;;;3.38;1.30;;;20.60;44.90;;;24.22;30.44;102485.13;5055226;28;20071;-9
2021/10/24 07:06:07;;;;;;;1.73;1.45;;;20.60;44.80;;;24.25;30.27;102492.16;5054524;28;20061;-9
2021/10/24 07:08:53;;;;;;;2.38;1.80;;;20.70;44.60;;;24.29;30.19;102489.25;5054887;28;20053;-9
2021/10/24 07:11:19;;;;;;;2.05;1.50;;;20.80;44.40;;;24.34;30.36;102491.66;5054984;28;20527;-9
2021/10/24 07:13:45;;;;;;;2.03;1.42;;;20.90;44.30;;;24.38;30.21;102494.13;5037702;28;20056;-9
2021/10/24 07:16:12;;;;;;;2.47;1.60;;;20.90;44.20;;;24.43;30.19;102493.88;5053498;28;20049;-9
2021/10/24 07:18:38;;;;;;;1.88;1.40;;;20.90;44.10;;;24.46;30.05;102496.41;5037131;28;20052;-9
2021/10/24 07:21:07;;;;;;;2.75;1.70;;;21.00;44.00;;;24.49;30.18;102495.38;5054780;28;20061;-9
2021/10/24 07:23:33;;;;;;;1.65;1.35;;;20.90;44.00;;;24.52;30.07;102501.44;5054951;28;20048;-9
2021/10/24 07:26:10;;;;;;;1.95;1.35;;;21.00;44.00;;;24.54;29.80;102501.34;5053205;28;20041;-9
2021/10/24 07:28:37;;;;;;;1.77;1.50;;;21.00;43.90;;;24.51;30.01;102490.84;5055123;28;20067;-9
2021/10/24 07:31:03;;;;;;;2.42;1.55;;;21.00;44.00;;;24.56;30.04;102504.88;5055103;28;20055;-9
2021/10/24 07:33:30;;;;;;;1.88;1.40;;;21.00;44.00;;;24.57;30.00;102506.56;5034560;28;20091;-8
2021/10/24 07:36:16;;;;;;;1.77;1.33;;;21.00;43.90;;;24.57;29.79;102493.19;5042585;28;20090;-9
2021/10/24 07:38:43;;;;;;;1.60;1.50;;;21.00;43.90;;;24.57;29.95;102490.53;5053463;28;20067;-8
2021/10/24 07:41:09;;;;;;;2.08;1.25;;;21.00;44.00;;;24.57;29.91;102488.75;5036548;28;20049;-9
2021/10/24 07:43:39;;;;;;;1.50;1.40;;;20.90;44.00;;;24.58;29.68;102485.09;5037143;28;20072;-9
2021/10/24 07:46:07;;;;;;;1.85;1.40;;;21.00;43.90;;;24.58;29.69;102490.44;5051497;28;20049;-9
2021/10/24 07:48:33;;;;;;;1.95;1.45;;;21.00;43.80;;;24.64;29.81;102493.75;5036565;28;20421;-8
2021/10/24 07:51:02;;;;;;;2.38;1.65;;;20.90;43.90;;;24.62;29.91;102485.81;5052811;28;20052;-8
2021/10/24 07:53:30;;;;;;;1.42;1.33;;;20.90;44.00;;;24.61;29.74;102481.41;5037154;28;20049;-8
2021/10/24 07:56:00;;;;;;;3.03;1.45;;;20.90;44.10;;;24.62;29.67;102484.94;5052633;28;20049;-9
2021/10/24 07:58:45;;;;;;;2.60;1.58;;;20.80;44.20;;;24.64;29.70;102491.97;5054389;28;20107;-8
2021/10/24 08:01:11;;;;;;;1.52;1.20;;;20.80;44.30;;;24.60;29.71;102477.84;5036309;28;20076;-9
2021/10/24 08:03:37;;;;;;;1.95;1.40;;;20.80;44.30;;;24.65;29.66;102487.47;5036863;28;20420;-9
2021/10/24 08:06:03;;;;;;;1.17;1.08;;;20.80;44.40;;;24.63;29.69;102482.19;5034758;28;20046;-8
2021/10/24 08:08:29;;;;;;;3.10;1.27;;;20.80;44.40;;;24.60;29.74;102474.34;5054136;28;20060;-9
2021/10/24 08:10:55;;;;;;;1.63;1.17;;;20.80;44.40;;;24.61;29.71;102476.06;5035462;28;20053;-9
2021/10/24 08:13:22;;;;;;;1.77;1.55;;;20.80;44.30;;;24.59;29.75;102472.59;5050448;28;20058;-11
2021/10/24 08:15:50;;;;;;;1.83;1.40;;;20.80;44.40;;;24.64;29.75;102477.72;5048910;28;20152;-9
2021/10/24 08:18:16;;;;;;;2.50;1.50;;;20.80;44.30;;;24.63;29.71;102467.97;5052090;28;20099;-15
2021/10/24 08:21:18;;;;;;;1.75;1.23;;;20.80;44.30;;;24.59;29.67;102460.09;5036026;28;20063;-9
2021/10/24 08:23:49;;;;;;;1.58;1.27;;;20.80;44.40;;;24.62;29.75;102466.22;5053090;28;20049;-9
2021/10/24 08:26:16;;;;;;;1.60;1.23;;;20.70;44.50;;;24.60;29.79;102463.63;5052567;28;20501;-9
2021/10/24 08:28:46;;;;;;;2.28;1.40;;;20.70;44.40;;;24.59;29.84;102464.56;5035813;28;20083;-9
2021/10/24 08:31:49;;;;;;;2.33;1.50;;;20.70;44.50;;;24.58;29.88;102455.69;5053767;28;20041;-9
2021/10/24 08:34:16;;;;;;;1.55;1.42;;;20.70;44.50;;;24.55;29.67;102457.66;5035871;28;20524;-9
2021/10/24 08:36:43;;;;;;;1.90;1.35;;;20.70;44.60;;;24.55;29.76;102450.50;5054090;28;20041;-8
2021/10/24 08:39:10;;;;;;;2.65;1.48;;;20.60;44.60;;;24.50;29.68;102447.16;5033886;28;20057;-8
2021/10/24 08:41:39;;;;;;;1.73;1.50;;;20.60;44.60;;;24.52;29.82;102455.97;5053544;28;20140;-9
2021/10/24 08:44:05;;;;;;;2.05;1.30;;;20.70;44.50;;;24.53;29.60;102454.19;5052373;28;20049;-8
2021/10/24 08:46:32;;;;;;;1.48;1.30;;;20.70;44.40;;;24.48;29.83;102443.72;5053368;28;20052;-9
2021/10/24 08:48:57;;;;;;;2.28;1.40;;;20.70;44.50;;;24.45;29.76;102441.19;5053550;28;20386;-9
2021/10/24 08:51:27;;;;;;;1.52;1.27;;;20.70;44.50;;;24.48;29.62;102437.50;5053401;28;20059;-9
2021/10/24 08:53:52;;;;;;;1.33;1.23;;;20.70;44.50;;;24.45;29.72;102438.53;5053477;28;20053;-9
2021/10/24 08:56:24;;;;;;;1.90;1.40;;;20.70;44.60;;;24.45;29.88;102440.34;5053442;28;20508;-9
2021/10/24 08:58:52;;;;;;;1.92;1.42;;;20.60;44.60;;;24.40;29.80;102427.19;5053414;28;20045;-9
2021/10/24 09:01:19;;;;;;;1.98;1.30;;;20.70;44.50;;;24.44;29.88;102434.13;5053517;28;20452;-9
2021/10/24 09:04:12;;;;;;;2.17;1.30;;;20.70;44.40;;;24.45;29.97;102433.19;5053409;28;20132;-9
2021/10/24 09:06:59;;;;;;;2.08;1.38;;;20.70;44.40;;;24.42;29.73;102428.88;5052966;28;20574;-9
2021/10/24 09:09:34;;;;;;;1.45;1.20;;;20.70;44.50;;;24.45;29.63;102438.53;5053598;28;20136;-9
2021/10/24 09:12:03;;;;;;;2.33;1.60;;;20.60;44.50;;;24.46;29.73;102429.56;5053331;28;20122;-9
2021/10/24 09:14:55;;;;;;;3.58;1.40;;;20.60;44.70;;;24.45;29.91;102425.16;5035861;28;20095;-8
2021/10/24 09:17:31;;;;;;;2.30;1.52;;;20.50;44.80;;;24.43;29.77;102424.38;5053087;28;20045;-9
2021/10/24 09:20:00;;;;;;;1.42;1.23;;;20.50;44.80;;;24.43;29.88;102421.69;5053385;28;20138;-8
2021/10/24 09:22:39;;;;;;;4.50;1.45;;;20.50;44.90;;;24.46;29.82;102429.56;5053542;28;20095;-9
2021/10/24 09:25:22;;;;;;;1.67;1.20;;;20.50;44.90;;;24.45;29.94;102418.94;5053000;28;20060;-9
2021/10/24 09:27:56;;;;;;;2.15;1.35;;;20.50;44.80;;;24.44;29.74;102410.06;5052960;28;20452;-9
2021/10/24 09:30:33;;;;;;;4.10;1.40;;;20.60;44.70;;;24.47;29.96;102420.59;5052184;28;20140;-9
2021/10/24 09:33:11;;;;;;;1.95;1.42;;;20.60;44.60;;;24.44;29.78;102412.75;5053262;28;20049;-8
2021/10/24 09:35:38;;;;;;;1.30;1.20;;;20.60;44.60;;;24.47;29.79;102417.91;5049023;28;20394;-9
2021/10/24 09:38:25;;;;;;;1.85;1.40;;;20.60;44.70;;;24.47;29.75;102419.72;5049865;28;20448;-9
2021/10/24 09:41:00;;;;;;;1.65;1.20;;;20.60;44.80;;;24.47;29.97;102415.22;5050722;28;20050;-9
2021/10/24 09:43:32;;;;;;;1.65;1.30;;;20.50;44.80;;;24.45;29.68;102413.59;5051293;28;20044;-9
2021/10/24 09:45:58;;;;;;;1.60;1.25;;;20.50;44.90;;;24.48;29.90;102416.13;5052498;28;20102;-9
2021/10/24 09:48:28;;;;;;;1.52;1.15;;;20.50;44.80;;;24.46;29.92;102407.28;5052340;28;20053;-8
2021/10/24 09:50:59;;;;;;;2.45;1.63;;;20.50;44.80;;;24.45;29.86;102405.59;5052597;28;20064;-8
2021/10/24 09:53:34;;;;;;;1.95;1.15;;;20.50;44.80;;;24.48;29.75;102411.63;5052710;28;20100;-9
2021/10/24 09:56:00;;;;;;;2.55;1.30;;;20.50;45.30;;;24.51;29.68;102416.81;5052527;28;20481;-9
2021/10/24 09:58:28;;;;;;;2.38;1.58;;;20.50;44.80;;;24.50;29.72;102409.72;5051510;28;20048;-9
2021/10/24 10:00:55;;;;;;;1.80;1.20;;;20.50;44.80;;;24.48;29.78;102400.06;5052149;28;20091;-8
2021/10/24 10:03:24;;;;;;;1.77;1.35;;;20.50;44.80;;;24.48;29.71;102400.94;5052256;28;20045;-8
2021/10/24 10:05:50;;;;;;;2.47;1.48;;;20.50;44.70;;;24.51;29.88;102402.59;5052077;28;20057;-9
2021/10/24 10:08:18;;;;;;;1.67;1.13;;;20.60;44.70;;;24.50;29.85;102401.72;5051984;28;20056;-9
2021/10/24 10:10:54;;;;;;;1.73;1.60;;;20.60;44.70;;;24.48;29.75;102389.38;5047278;28;20054;-9
2021/10/24 10:13:25;;;;;;;1.77;1.40;;;20.50;44.70;;;24.50;29.72;102393.69;5051108;28;20127;-9
2021/10/24 10:15:51;;;;;;;2.43;1.37;;;20.50;44.60;;;24.50;29.63;102387.50;5049786;28;20088;-9
2021/10/24 10:18:22;;;;;;;1.70;1.38;;;20.60;44.70;;;24.51;29.77;102390.06;5047034;28;20049;-9
2021/10/24 10:20:53;;;;;;;1.03;0.93;;;20.50;44.70;;;24.55;29.74;102389.00;5051778;28;20489;-9
2021/10/24 10:23:39;;;;;;;1.40;1.30;;;20.50;44.70;;;24.51;29.57;102384.72;5034041;28;20059;-9
2021/10/24 10:26:40;;;;;;;1.70;1.25;;;20.50;44.70;;;24.53;29.73;102393.53;5052748;28;20363;-8
2021/10/24 10:29:10;;;;;;;1.80;1.40;;;20.50;44.70;;;24.48;29.68;102373.34;5051974;28;20164;-9
2021/10/24 10:31:37;;;;;;;2.00;1.20;;;20.50;44.80;;;24.48;29.62;102365.31;5052523;28;20063;-9